Time;durP1;ratioP1;P1;durP2;ratioP2;P2;SDS_P1;SDS_P2;PMS_P1;PMS_P2;Temp;Humidity;BMP_temperature;BMP_pressure;BME280_temperature;BME280_humidity;BME280_pressure;Samples;Min_cycle;Max_cycle;Signal;HPM_P1;HPM_P2
2022/07/27 00:00:49;;;;;;;2.75;2.40;;;27.40;52.00;;;;;;6217036;23;20095;-68
2022/07/27 00:03:15;;;;;;;3.33;2.65;;;27.40;52.30;;;;;;6216755;23;20032;-68
2022/07/27 00:05:40;;;;;;;5.60;2.90;;;27.40;52.40;;;;;;6216634;23;20331;-68
2022/07/27 00:08:06;;;;;;;3.28;2.63;;;27.40;52.60;;;;;;6218005;23;20008;-69
2022/07/27 00:10:33;;;;;;;4.95;2.95;;;27.40;52.80;;;;;;6217440;23;20503;-80
2022/07/27 00:12:59;;;;;;;4.10;2.80;;;27.40;53.00;;;;;;6217212;23;20000;-80
2022/07/27 00:15:25;;;;;;;4.15;2.50;;;27.40;53.00;;;;;;6216807;23;20016;-68
2022/07/27 00:17:50;;;;;;;2.92;2.50;;;27.40;53.20;;;;;;6216503;23;20446;-68
2022/07/27 00:20:16;;;;;;;3.72;2.83;;;27.40;53.40;;;;;;6216141;23;19996;-68
2022/07/27 00:22:41;;;;;;;3.67;2.80;;;27.40;53.40;;;;;;6217830;23;20503;-80
2022/07/27 00:25:07;;;;;;;4.95;2.78;;;27.30;53.50;;;;;;6218291;23;20438;-69
2022/07/27 00:27:33;;;;;;;5.75;3.00;;;27.30;53.60;;;;;;6217410;23;20016;-81
2022/07/27 00:29:59;;;;;;;4.25;2.42;;;27.30;53.70;;;;;;6217841;23;20305;-79
2022/07/27 00:32:25;;;;;;;3.75;2.60;;;27.30;53.70;;;;;;6216620;23;20013;-68
2022/07/27 00:34:50;;;;;;;6.05;2.85;;;27.30;53.80;;;;;;6216868;23;20003;-69
2022/07/27 00:37:16;;;;;;;6.28;2.85;;;27.20;54.00;;;;;;6216614;23;20016;-68
2022/07/27 00:39:42;;;;;;;4.43;2.67;;;27.20;54.20;;;;;;6216233;23;20423;-69
2022/07/27 00:42:08;;;;;;;4.63;2.90;;;27.20;54.20;;;;;;6216204;23;20092;-68
2022/07/27 00:44:35;;;;;;;7.65;3.17;;;27.20;54.30;;;;;;6215959;23;20382;-68
2022/07/27 00:47:00;;;;;;;4.93;2.92;;;27.20;54.60;;;;;;6215812;23;20001;-69
2022/07/27 00:49:26;;;;;;;3.67;2.50;;;27.20;54.60;;;;;;6215846;23;20054;-78
2022/07/27 00:51:54;;;;;;;3.95;2.60;;;27.20;54.50;;;;;;6216394;23;20083;-72
2022/07/27 00:54:21;;;;;;;4.78;2.75;;;27.20;54.50;;;;;;6216049;23;20000;-69
2022/07/27 00:56:48;;;;;;;5.28;2.53;;;27.20;54.60;;;;;;6216005;23;20308;-76
2022/07/27 00:59:14;;;;;;;4.47;2.58;;;27.20;54.60;;;;;;6212775;23;20339;-69
2022/07/27 01:01:41;;;;;;;4.05;2.88;;;27.20;54.70;;;;;;6212860;23;20032;-69
2022/07/27 01:04:07;;;;;;;5.28;3.10;;;27.20;54.70;;;;;;6213420;23;20001;-68
2022/07/27 01:06:33;;;;;;;5.95;2.35;;;27.20;54.80;;;;;;6215759;23;20430;-80
2022/07/27 01:11:45;;;;;;;3.53;2.50;;;27.10;54.90;;;;;;6215802;23;20035;-69
2022/07/27 01:14:13;;;;;;;5.45;2.50;;;27.10;55.20;;;;;;6215732;23;20000;-69
2022/07/27 01:16:39;;;;;;;4.88;2.60;;;27.00;55.20;;;;;;6215728;23;20063;-69
2022/07/27 01:19:05;;;;;;;4.53;2.30;;;27.00;55.30;;;;;;6215971;23;20427;-68
2022/07/27 01:21:35;;;;;;;3.88;2.45;;;27.00;55.60;;;;;;6216799;23;20032;-69
2022/07/27 01:24:01;;;;;;;3.63;2.70;;;27.00;55.60;;;;;;6217841;23;20412;-69
2022/07/27 01:26:28;;;;;;;5.05;2.92;;;27.00;55.70;;;;;;6218500;23;20025;-72
2022/07/27 01:28:58;;;;;;;3.90;3.00;;;27.00;55.70;;;;;;6219228;23;20370;-74
2022/07/27 01:31:24;;;;;;;3.47;3.15;;;27.00;55.80;;;;;;6218532;23;20035;-80
2022/07/27 01:33:49;;;;;;;3.67;2.80;;;27.00;55.80;;;;;;6219212;23;20032;-74
2022/07/27 01:36:15;;;;;;;6.60;2.58;;;27.00;55.80;;;;;;6217657;23;20008;-71
2022/07/27 01:38:41;;;;;;;4.15;2.80;;;26.90;55.70;;;;;;6216993;23;20008;-76
2022/07/27 01:41:07;;;;;;;5.03;2.70;;;26.90;55.90;;;;;;6219726;23;20000;-75
2022/07/27 01:43:33;;;;;;;5.03;2.70;;;26.90;56.00;;;;;;6218080;23;20008;-72
2022/07/27 01:45:59;;;;;;;4.57;3.00;;;26.90;55.90;;;;;;6217443;23;20000;-72
2022/07/27 01:48:25;;;;;;;4.82;2.83;;;26.90;55.90;;;;;;6218364;23;20009;-80
2022/07/27 01:50:52;;;;;;;6.10;2.72;;;26.90;55.90;;;;;;6218047;23;20068;-75
2022/07/27 01:53:19;;;;;;;6.20;3.22;;;26.90;55.90;;;;;;6215943;23;20001;-77
2022/07/27 01:55:45;;;;;;;8.40;3.05;;;26.90;55.80;;;;;;6215826;23;20031;-80
2022/07/27 01:58:11;;;;;;;3.95;3.15;;;26.90;55.90;;;;;;6217241;23;20011;-77
2022/07/27 02:00:38;;;;;;;4.95;3.03;;;26.90;55.80;;;;;;6218270;23;20021;-74
2022/07/27 02:03:05;;;;;;;6.40;2.65;;;26.90;55.70;;;;;;6215879;23;20008;-72
2022/07/27 02:05:31;;;;;;;3.33;2.67;;;26.90;55.90;;;;;;6216558;23;19996;-78
2022/07/27 02:07:57;;;;;;;3.03;2.58;;;26.90;55.90;;;;;;6216354;23;20076;-80
2022/07/27 02:10:23;;;;;;;4.18;2.60;;;26.90;55.90;;;;;;6219709;23;20008;-80
2022/07/27 02:12:50;;;;;;;3.92;3.03;;;26.90;55.90;;;;;;6216688;23;20028;-74
2022/07/27 02:15:19;;;;;;;7.07;3.40;;;26.90;56.00;;;;;;6216658;23;19997;-80
2022/07/27 02:17:46;;;;;;;4.72;2.72;;;26.80;55.90;;;;;;6215738;23;20016;-77
2022/07/27 02:20:14;;;;;;;3.63;2.95;;;26.80;56.00;;;;;;6217285;23;20008;-80
2022/07/27 02:22:40;;;;;;;4.38;2.70;;;26.80;56.10;;;;;;6216014;23;20005;-79
2022/07/27 02:25:07;;;;;;;4.53;2.60;;;26.80;56.00;;;;;;6217879;23;20374;-75
2022/07/27 02:27:33;;;;;;;4.80;2.88;;;26.70;55.80;;;;;;6217780;23;20040;-79
2022/07/27 02:29:59;;;;;;;5.53;2.65;;;26.70;55.90;;;;;;6219620;23;20004;-79
2022/07/27 02:32:24;;;;;;;2.88;2.40;;;26.70;55.80;;;;;;6217946;23;20055;-79
2022/07/27 02:34:50;;;;;;;3.45;2.53;;;26.70;55.50;;;;;;6219447;23;20007;-79
2022/07/27 02:37:16;;;;;;;3.85;2.60;;;26.70;55.20;;;;;;6217898;23;20335;-80
2022/07/27 02:39:42;;;;;;;2.83;2.42;;;26.70;55.10;;;;;;6221114;23;20335;-79
2022/07/27 02:42:08;;;;;;;3.92;2.60;;;26.70;55.20;;;;;;6219839;23;20382;-72
2022/07/27 02:44:34;;;;;;;4.88;2.63;;;26.80;55.20;;;;;;6217964;23;19996;-71
2022/07/27 02:46:59;;;;;;;5.80;2.67;;;26.70;55.00;;;;;;6220953;23;20056;-79
2022/07/27 02:49:25;;;;;;;7.07;3.10;;;26.70;55.20;;;;;;6223136;23;20019;-79
2022/07/27 02:51:52;;;;;;;3.38;2.42;;;26.70;55.00;;;;;;6224759;23;20027;-79
2022/07/27 02:54:19;;;;;;;3.25;2.78;;;26.70;55.00;;;;;;6225222;23;20004;-80
2022/07/27 02:56:45;;;;;;;4.15;2.92;;;26.70;55.10;;;;;;6231894;23;20017;-80
2022/07/27 02:59:11;;;;;;;3.53;2.70;;;26.70;55.00;;;;;;6233246;23;20032;-78
2022/07/27 03:01:36;;;;;;;6.80;2.80;;;26.60;54.90;;;;;;6230209;23;20008;-77
2022/07/27 03:04:03;;;;;;;2.72;2.38;;;26.70;54.80;;;;;;6231693;23;20009;-76
2022/07/27 03:06:28;;;;;;;3.08;2.50;;;26.70;54.90;;;;;;6233020;23;19985;-75
2022/07/27 03:08:54;;;;;;;3.63;2.45;;;26.70;54.80;;;;;;6233913;23;20004;-77
2022/07/27 03:11:20;;;;;;;10.57;2.50;;;26.70;54.90;;;;;;6232951;23;20300;-80
2022/07/27 03:13:46;;;;;;;7.63;2.17;;;26.70;54.80;;;;;;6224248;23;20407;-77
2022/07/27 03:16:11;;;;;;;3.80;2.35;;;26.70;54.60;;;;;;6227808;23;20443;-79
2022/07/27 03:18:37;;;;;;;4.47;2.53;;;26.70;54.40;;;;;;6220855;23;20007;-80
2022/07/27 03:21:03;;;;;;;6.63;2.80;;;26.70;54.50;;;;;;6218902;23;20008;-74
2022/07/27 03:23:29;;;;;;;7.32;2.40;;;26.70;54.50;;;;;;6224334;23;20044;-78
2022/07/27 03:25:55;;;;;;;3.90;2.42;;;26.70;54.40;;;;;;6225732;23;20004;-80
2022/07/27 03:28:20;;;;;;;6.10;2.72;;;26.70;54.40;;;;;;6166035;23;20356;-80
2022/07/27 03:30:46;;;;;;;5.20;2.72;;;26.70;54.50;;;;;;6165594;23;20073;-80
2022/07/27 03:33:12;;;;;;;5.53;3.08;;;26.60;54.60;;;;;;6162557;23;20002;-80
2022/07/27 03:35:37;;;;;;;7.50;2.75;;;26.70;54.80;;;;;;6163485;23;20024;-79
2022/07/27 03:38:03;;;;;;;4.28;2.50;;;26.60;54.70;;;;;;6165119;23;20097;-70
2022/07/27 03:40:31;;;;;;;5.43;2.85;;;26.60;54.80;;;;;;6165584;23;20008;-76
2022/07/27 03:42:57;;;;;;;7.70;2.95;;;26.60;54.90;;;;;;6162013;23;20017;-76
2022/07/27 03:45:23;;;;;;;6.15;2.60;;;26.60;55.00;;;;;;6161966;23;20002;-80
2022/07/27 03:47:48;;;;;;;3.22;2.75;;;26.60;55.00;;;;;;6162114;23;20073;-72
2022/07/27 03:50:14;;;;;;;4.47;2.63;;;26.70;55.20;;;;;;6160521;23;20009;-81
2022/07/27 03:52:40;;;;;;;6.25;2.42;;;26.60;54.80;;;;;;6160549;23;20063;-79
2022/07/27 03:55:06;;;;;;;5.05;2.92;;;26.70;54.90;;;;;;6159615;23;20427;-79
2022/07/27 03:57:32;;;;;;;4.65;2.63;;;26.60;54.70;;;;;;6160312;23;20021;-79
2022/07/27 03:59:58;;;;;;;4.03;2.95;;;26.60;54.70;;;;;;6159798;23;20002;-80
2022/07/27 04:02:23;;;;;;;3.38;2.40;;;26.60;54.60;;;;;;6158587;23;20085;-81
2022/07/27 04:04:49;;;;;;;3.00;2.40;;;26.60;54.50;;;;;;6160657;23;20022;-79
2022/07/27 04:07:15;;;;;;;4.47;3.28;;;26.60;54.40;;;;;;6161061;23;20032;-72
2022/07/27 04:09:40;;;;;;;5.55;2.47;;;26.60;54.40;;;;;;6159627;23;20360;-79
2022/07/27 04:12:07;;;;;;;3.88;2.45;;;26.60;54.40;;;;;;6159464;23;20076;-78
2022/07/27 04:14:32;;;;;;;6.07;2.60;;;26.60;54.40;;;;;;6160763;23;19998;-79
2022/07/27 04:16:58;;;;;;;4.18;2.67;;;26.60;54.40;;;;;;6160358;23;20022;-80
2022/07/27 04:19:25;;;;;;;3.92;2.70;;;26.60;54.50;;;;;;6159865;23;20001;-78
2022/07/27 04:21:51;;;;;;;3.33;2.30;;;26.60;54.60;;;;;;6158168;23;20014;-75
2022/07/27 04:24:17;;;;;;;4.43;2.50;;;26.70;54.70;;;;;;6157505;23;20009;-72
2022/07/27 04:26:43;;;;;;;4.22;2.40;;;26.60;54.60;;;;;;6176061;23;20016;-70
2022/07/27 04:29:08;;;;;;;6.75;2.70;;;26.60;55.30;;;;;;6216562;23;20012;-72
2022/07/27 04:31:34;;;;;;;6.00;2.63;;;26.60;54.70;;;;;;6216552;23;20017;-72
2022/07/27 04:34:00;;;;;;;4.90;2.50;;;26.70;54.80;;;;;;6216459;23;20050;-71
2022/07/27 04:36:25;;;;;;;2.97;2.67;;;26.70;54.90;;;;;;6216575;23;20086;-69
2022/07/27 04:38:51;;;;;;;5.35;2.58;;;26.70;55.00;;;;;;6216379;23;20012;-69
2022/07/27 04:41:17;;;;;;;4.07;2.35;;;26.70;55.20;;;;;;6216587;23;20000;-69
2022/07/27 04:43:42;;;;;;;4.50;2.65;;;26.70;55.30;;;;;;6216443;23;20007;-69
2022/07/27 04:46:08;;;;;;;11.07;2.95;;;26.70;55.20;;;;;;6215596;23;20070;-71
2022/07/27 04:48:35;;;;;;;4.70;2.92;;;26.70;55.20;;;;;;6214946;23;20009;-72
2022/07/27 04:51:01;;;;;;;4.15;2.80;;;26.70;55.20;;;;;;6214818;23;20327;-70
2022/07/27 04:53:27;;;;;;;5.50;2.70;;;26.80;55.40;;;;;;6217161;23;20035;-70
2022/07/27 04:55:52;;;;;;;4.30;2.30;;;26.80;55.40;;;;;;6217172;23;20423;-68
2022/07/27 04:58:18;;;;;;;3.65;2.47;;;26.80;55.20;;;;;;6216916;23;20008;-73
2022/07/27 05:00:44;;;;;;;3.72;2.22;;;26.90;55.00;;;;;;6217088;23;20003;-70
2022/07/27 05:03:10;;;;;;;3.70;2.40;;;26.90;55.10;;;;;;6216548;23;20027;-69
2022/07/27 05:05:36;;;;;;;4.22;2.58;;;26.90;55.10;;;;;;6216247;23;20036;-70
2022/07/27 05:08:02;;;;;;;4.78;2.65;;;26.90;54.90;;;;;;6216355;23;20001;-69
2022/07/27 05:10:28;;;;;;;5.25;2.60;;;27.00;54.80;;;;;;6215932;23;20001;-72
2022/07/27 05:12:54;;;;;;;3.10;2.40;;;27.00;54.70;;;;;;6215956;23;19996;-67
2022/07/27 05:15:20;;;;;;;3.25;2.60;;;27.00;54.80;;;;;;6215864;23;20487;-69
2022/07/27 05:17:46;;;;;;;4.47;2.60;;;27.00;54.90;;;;;;6215913;23;20017;-73
2022/07/27 05:20:12;;;;;;;3.78;2.58;;;27.00;54.50;;;;;;6216101;23;20008;-69
2022/07/27 05:22:38;;;;;;;5.03;2.20;;;27.10;55.00;;;;;;6215842;23;20015;-74
2022/07/27 05:25:05;;;;;;;3.40;2.20;;;27.10;54.30;;;;;;6215690;23;20001;-78
2022/07/27 05:27:30;;;;;;;4.55;2.55;;;27.00;54.40;;;;;;6215556;23;20024;-77
2022/07/27 05:29:56;;;;;;;3.97;2.25;;;27.00;54.40;;;;;;6215630;23;20441;-78
2022/07/27 05:32:22;;;;;;;5.10;3.03;;;27.10;54.40;;;;;;6215963;23;20004;-77
2022/07/27 05:34:48;;;;;;;7.13;2.60;;;27.00;54.30;;;;;;6215363;23;20035;-78
2022/07/27 05:37:14;;;;;;;3.03;2.30;;;27.00;54.40;;;;;;6214781;23;20012;-72
2022/07/27 05:39:41;;;;;;;3.10;2.38;;;27.00;54.30;;;;;;6214691;23;20037;-77
2022/07/27 05:42:08;;;;;;;5.32;2.58;;;27.00;54.40;;;;;;6215358;23;20051;-78
2022/07/27 05:44:34;;;;;;;7.28;2.78;;;26.90;54.30;;;;;;6215615;23;20024;-78
2022/07/27 05:47:00;;;;;;;4.95;2.65;;;26.90;54.60;;;;;;6215672;23;20001;-78
2022/07/27 05:49:25;;;;;;;7.15;2.55;;;26.90;55.40;;;;;;6215183;23;20091;-73
2022/07/27 05:51:51;;;;;;;5.15;2.80;;;26.90;55.90;;;;;;6215488;23;20424;-78
2022/07/27 05:54:17;;;;;;;8.77;2.90;;;26.80;56.00;;;;;;6215431;23;20000;-79
2022/07/27 05:56:43;;;;;;;15.18;3.97;;;26.90;56.90;;;;;;6215800;23;20021;-75
2022/07/27 05:59:09;;;;;;;19.00;5.25;;;26.80;59.10;;;;;;6215774;23;20083;-79
2022/07/27 06:01:35;;;;;;;13.20;3.75;;;26.60;64.00;;;;;;6215448;23;20051;-74
2022/07/27 06:04:01;;;;;;;23.17;5.53;;;26.40;64.10;;;;;;6215530;23;20008;-74
2022/07/27 06:09:11;;;;;;;16.00;5.00;;;26.00;71.50;;;;;;6215658;23;20067;-76
2022/07/27 06:11:37;;;;;;;11.43;4.72;;;25.70;73.30;;;;;;6215579;23;20009;-70
2022/07/27 06:14:02;;;;;;;10.38;4.10;;;25.50;74.20;;;;;;6215245;23;20067;-74
2022/07/27 06:16:29;;;;;;;10.02;4.10;;;25.40;74.20;;;;;;6215737;23;20083;-80
2022/07/27 06:18:54;;;;;;;7.82;4.07;;;25.30;74.60;;;;;;6215124;23;20334;-79
2022/07/27 06:21:23;;;;;;;8.18;3.83;;;25.30;74.60;;;;;;6215369;23;20032;-70
2022/07/27 06:23:49;;;;;;;5.93;3.58;;;25.20;74.20;;;;;;6215216;23;20004;-78
2022/07/27 06:26:15;;;;;;;8.23;3.78;;;25.20;75.50;;;;;;6215040;23;20443;-76
2022/07/27 06:28:40;;;;;;;8.32;3.83;;;25.20;77.10;;;;;;6215277;23;20003;-80
2022/07/27 06:31:06;;;;;;;6.53;4.00;;;25.10;77.10;;;;;;6215247;23;20024;-73
2022/07/27 06:33:32;;;;;;;5.93;3.70;;;25.10;78.20;;;;;;6215210;23;20007;-77
2022/07/27 06:35:59;;;;;;;8.82;3.75;;;25.00;78.20;;;;;;6215091;23;20419;-80
2022/07/27 06:38:25;;;;;;;4.93;3.47;;;25.00;77.30;;;;;;6215327;23;20103;-77
2022/07/27 06:40:52;;;;;;;5.03;3.78;;;25.00;76.90;;;;;;6216625;23;20005;-80
2022/07/27 06:43:19;;;;;;;8.32;3.45;;;25.00;77.10;;;;;;6217403;23;20013;-80
2022/07/27 06:45:45;;;;;;;4.35;3.30;;;25.00;77.30;;;;;;6217202;23;20011;-79
2022/07/27 06:48:11;;;;;;;7.25;4.05;;;25.00;76.50;;;;;;6217322;23;20019;-79
2022/07/27 06:50:37;;;;;;;6.32;3.95;;;25.00;79.50;;;;;;6217183;23;20379;-79
2022/07/27 06:53:02;;;;;;;6.63;3.55;;;25.00;80.00;;;;;;6217132;23;20055;-80
2022/07/27 06:55:28;;;;;;;6.40;4.07;;;25.00;80.50;;;;;;6216913;23;19997;-79
2022/07/27 06:57:54;;;;;;;7.38;4.30;;;25.00;80.00;;;;;;6217138;23;20013;-75
2022/07/27 07:00:20;;;;;;;6.78;4.20;;;25.10;80.20;;;;;;6217413;23;20007;-80
2022/07/27 07:02:55;;;;;;;8.23;4.53;;;25.10;79.90;;;;;;6216957;23;20008;-79
2022/07/27 07:05:21;;;;;;;11.10;4.32;;;25.20;79.70;;;;;;6217480;23;20024;-79
2022/07/27 07:07:47;;;;;;;10.73;3.90;;;25.20;79.60;;;;;;6216817;23;20040;-77
2022/07/27 07:10:13;;;;;;;8.75;3.63;;;25.20;80.60;;;;;;6216987;23;20004;-76
2022/07/27 07:12:39;;;;;;;11.82;4.13;;;25.20;79.10;;;;;;6216826;23;20004;-77
2022/07/27 07:15:06;;;;;;;7.38;4.03;;;25.10;79.00;;;;;;6217087;23;20009;-76
2022/07/27 07:17:32;;;;;;;9.77;4.03;;;25.10;79.70;;;;;;6216717;23;20074;-79
2022/07/27 07:19:58;;;;;;;7.55;3.97;;;25.10;80.40;;;;;;6217068;23;20029;-79
2022/07/27 07:22:24;;;;;;;7.03;4.00;;;25.10;80.70;;;;;;6217164;23;20008;-77
2022/07/27 07:24:50;;;;;;;8.63;4.07;;;25.20;81.20;;;;;;6217133;23;20009;-78
2022/07/27 07:27:18;;;;;;;8.52;3.80;;;25.20;80.90;;;;;;6216705;23;20083;-71
2022/07/27 07:29:43;;;;;;;5.28;3.35;;;25.20;80.40;;;;;;6217195;23;20008;-79
2022/07/27 07:32:09;;;;;;;6.18;3.53;;;25.20;80.00;;;;;;6217080;23;20407;-78
2022/07/27 07:34:35;;;;;;;7.50;3.30;;;25.30;81.30;;;;;;6217060;23;20469;-75
2022/07/27 07:37:01;;;;;;;6.82;3.42;;;25.30;80.60;;;;;;6216474;23;20009;-78
2022/07/27 07:39:26;;;;;;;7.03;3.50;;;25.30;79.70;;;;;;6216743;23;20004;-77
2022/07/27 07:41:52;;;;;;;6.20;3.53;;;25.30;79.10;;;;;;6216585;23;20013;-76
2022/07/27 07:44:18;;;;;;;3.95;3.10;;;25.40;78.60;;;;;;6216688;23;20040;-79
2022/07/27 07:46:44;;;;;;;6.65;3.63;;;25.40;77.30;;;;;;6216399;23;20008;-79
2022/07/27 07:49:10;;;;;;;5.20;3.80;;;25.40;77.30;;;;;;6217023;23;20005;-79
2022/07/27 07:51:36;;;;;;;8.90;3.40;;;25.50;79.00;;;;;;6216017;23;20010;-78
2022/07/27 07:54:02;;;;;;;6.47;3.10;;;25.50;78.70;;;;;;6216510;23;20004;-78
2022/07/27 07:56:27;;;;;;;3.55;3.10;;;25.60;78.70;;;;;;6216439;23;20031;-78
2022/07/27 07:58:53;;;;;;;6.22;2.88;;;25.60;78.60;;;;;;6216781;23;20040;-78
2022/07/27 08:01:19;;;;;;;4.78;3.00;;;25.70;76.70;;;;;;6189929;23;20005;-79
2022/07/27 08:03:45;;;;;;;3.88;3.00;;;25.70;76.20;;;;;;6216857;23;20032;-78
2022/07/27 08:06:10;;;;;;;5.60;3.35;;;25.80;74.90;;;;;;6216330;23;20296;-76
2022/07/27 08:08:36;;;;;;;5.10;3.00;;;25.80;74.50;;;;;;6216703;23;20031;-77
2022/07/27 08:11:02;;;;;;;6.88;2.90;;;25.90;75.00;;;;;;6216348;23;20012;-77
2022/07/27 08:13:27;;;;;;;8.23;3.33;;;25.90;75.00;;;;;;6216240;23;20019;-78
2022/07/27 08:15:53;;;;;;;3.38;2.85;;;26.00;74.50;;;;;;6216397;23;20012;-78
2022/07/27 08:18:19;;;;;;;4.63;2.75;;;26.00;74.30;;;;;;6216550;23;20042;-77
2022/07/27 08:20:45;;;;;;;8.80;3.42;;;26.10;73.60;;;;;;6216619;23;20004;-70
2022/07/27 08:23:14;;;;;;;4.47;2.85;;;26.20;73.70;;;;;;6216189;23;20398;-77
2022/07/27 08:25:39;;;;;;;4.57;2.80;;;26.20;73.80;;;;;;6215818;23;19996;-73
2022/07/27 08:28:05;;;;;;;6.50;2.70;;;26.20;72.40;;;;;;6214934;23;20339;-70
2022/07/27 08:30:31;;;;;;;6.22;2.40;;;26.20;70.80;;;;;;6215367;23;20138;-75
2022/07/27 08:32:59;;;;;;;5.20;2.47;;;26.30;70.70;;;;;;6215759;23;19996;-73
2022/07/27 08:35:27;;;;;;;3.45;2.40;;;26.30;69.00;;;;;;6215266;23;20015;-75
2022/07/27 08:37:54;;;;;;;3.33;2.67;;;26.40;66.80;;;;;;6215402;23;20095;-76
2022/07/27 08:40:20;;;;;;;4.38;2.30;;;26.40;67.90;;;;;;6215573;23;20331;-77
2022/07/27 08:42:46;;;;;;;5.95;2.65;;;26.50;67.90;;;;;;6215741;23;20001;-75
2022/07/27 08:45:14;;;;;;;5.63;2.45;;;26.50;66.20;;;;;;6215695;23;20008;-74
2022/07/27 08:47:41;;;;;;;7.00;2.50;;;26.50;65.30;;;;;;6215353;23;20012;-75
2022/07/27 08:50:22;;;;;;;3.28;2.40;;;26.60;65.90;;;;;;6215341;23;20439;-72
2022/07/27 08:52:54;;;;;;;2.65;2.15;;;26.70;66.00;;;;;;6215063;23;20032;-72
2022/07/27 08:55:20;;;;;;;3.80;2.10;;;26.80;64.20;;;;;;6215388;23;20008;-76
2022/07/27 08:57:46;;;;;;;4.22;2.50;;;26.90;62.80;;;;;;6215746;23;20013;-75
2022/07/27 09:00:12;;;;;;;4.30;2.42;;;27.10;59.90;;;;;;6215430;23;20368;-76
2022/07/27 09:02:40;;;;;;;4.07;2.20;;;27.20;60.00;;;;;;6215309;23;20435;-71
2022/07/27 09:05:08;;;;;;;3.67;2.22;;;27.30;58.80;;;;;;6215425;23;20008;-74
2022/07/27 09:07:34;;;;;;;3.70;2.20;;;27.40;57.40;;;;;;6215104;23;20020;-76
2022/07/27 09:10:00;;;;;;;9.82;2.45;;;27.50;57.50;;;;;;6223262;23;20036;-76
2022/07/27 09:12:28;;;;;;;7.53;2.22;;;27.60;57.10;;;;;;6225014;23;20000;-77
2022/07/27 09:15:07;;;;;;;6.18;2.47;;;27.70;56.10;;;;;;6217015;23;19996;-74
2022/07/27 09:17:33;;;;;;;7.15;2.25;;;27.80;56.50;;;;;;6215282;23;20067;-77
2022/07/27 09:20:02;;;;;;;4.13;2.17;;;27.90;56.80;;;;;;6215212;23;20009;-75
2022/07/27 09:22:43;;;;;;;3.42;2.13;;;27.90;54.20;;;;;;6215593;23;20013;-73
2022/07/27 09:25:11;;;;;;;8.30;2.00;;;28.00;52.00;;;;;;6196565;22;20477;-76
2022/07/27 09:27:37;;;;;;;5.97;1.85;;;28.00;48.60;;;;;;6245893;22;20016;-75
2022/07/27 09:30:09;;;;;;;3.08;2.03;;;28.00;48.60;;;;;;6245674;22;20026;-69
2022/07/27 09:32:36;;;;;;;6.50;1.85;;;28.00;47.60;;;;;;6245345;23;20042;-71
2022/07/27 09:35:25;;;;;;;6.25;2.03;;;28.00;46.90;;;;;;6245268;22;20050;-76
2022/07/27 09:37:51;;;;;;;2.88;1.88;;;28.00;46.40;;;;;;6245500;22;20103;-70
2022/07/27 09:40:20;;;;;;;10.43;2.30;;;28.00;47.00;;;;;;6245359;22;20024;-70
2022/07/27 09:42:47;;;;;;;4.10;2.10;;;28.10;47.00;;;;;;6245142;22;20011;-72
2022/07/27 09:45:32;;;;;;;4.97;2.08;;;28.10;47.10;;;;;;6245985;22;20008;-74
2022/07/27 09:48:16;;;;;;;4.68;2.15;;;28.10;47.20;;;;;;6245989;22;20443;-78
2022/07/27 09:50:59;;;;;;;3.28;2.00;;;28.20;46.60;;;;;;6246376;22;20023;-71
2022/07/27 09:53:33;;;;;;;4.60;1.75;;;28.20;46.70;;;;;;6246738;22;20015;-76
2022/07/27 09:56:03;;;;;;;8.90;1.70;;;28.30;45.70;;;;;;6246338;22;20008;-78
2022/07/27 09:58:43;;;;;;;3.88;2.08;;;28.30;46.00;;;;;;6245919;22;20326;-70
2022/07/27 10:01:23;;;;;;;3.90;2.22;;;28.30;45.40;;;;;;6245982;22;20019;-77
2022/07/27 10:03:54;;;;;;;2.60;2.05;;;28.30;45.90;;;;;;6246452;22;20004;-79
2022/07/27 10:06:21;;;;;;;2.85;2.13;;;28.30;45.40;;;;;;6246086;22;20008;-78
2022/07/27 10:08:49;;;;;;;5.55;2.08;;;28.40;45.40;;;;;;6245748;23;20008;-77
2022/07/27 10:11:16;;;;;;;4.20;2.15;;;28.40;45.40;;;;;;6245911;22;20011;-78
2022/07/27 10:13:41;;;;;;;2.13;1.80;;;28.50;45.30;;;;;;6246211;22;20012;-78
2022/07/27 10:16:16;;;;;;;4.40;1.75;;;28.50;45.30;;;;;;6245327;22;20073;-78
2022/07/27 10:18:42;;;;;;;5.32;1.90;;;28.60;45.20;;;;;;6246124;22;20491;-78
2022/07/27 10:21:09;;;;;;;5.00;2.20;;;28.60;45.10;;;;;;6245624;23;20028;-70
2022/07/27 10:23:38;;;;;;;3.00;1.90;;;28.70;45.40;;;;;;6245535;22;20010;-78
2022/07/27 10:26:22;;;;;;;6.05;2.05;;;28.70;45.10;;;;;;6246296;22;20016;-78
2022/07/27 10:28:55;;;;;;;3.40;2.20;;;28.70;45.50;;;;;;6245953;23;20012;-78
2022/07/27 10:31:24;;;;;;;4.18;2.20;;;28.70;45.00;;;;;;6246233;23;20008;-77
2022/07/27 10:33:53;;;;;;;3.10;2.00;;;28.80;45.50;;;;;;6246074;22;20018;-78
2022/07/27 10:36:22;;;;;;;3.53;2.10;;;28.80;45.40;;;;;;6246170;22;20043;-78
2022/07/27 10:38:55;;;;;;;3.90;2.10;;;28.90;44.80;;;;;;6245745;23;20005;-75
2022/07/27 10:41:31;;;;;;;2.97;2.28;;;28.90;45.30;;;;;;6245951;22;20411;-78
2022/07/27 10:44:20;;;;;;;3.75;1.90;;;28.90;45.10;;;;;;6245726;22;20000;-78
2022/07/27 10:46:54;;;;;;;4.20;2.10;;;29.00;45.40;;;;;;6245367;22;20000;-69
2022/07/27 10:49:24;;;;;;;3.92;2.40;;;28.90;45.50;;;;;;6245591;23;20039;-77
2022/07/27 10:51:53;;;;;;;5.15;2.38;;;29.00;45.70;;;;;;6245538;22;20091;-74
2022/07/27 10:54:41;;;;;;;3.05;2.00;;;29.00;45.50;;;;;;6245729;22;20036;-78
2022/07/27 10:57:08;;;;;;;3.15;1.90;;;29.00;46.00;;;;;;6245757;23;20463;-78
2022/07/27 10:59:40;;;;;;;2.92;2.15;;;29.10;46.10;;;;;;6245885;22;19996;-78
2022/07/27 11:02:08;;;;;;;5.25;2.13;;;29.10;45.50;;;;;;6245516;22;20438;-77
2022/07/27 11:04:43;;;;;;;3.63;2.10;;;29.10;46.10;;;;;;6246250;22;20805;-77
2022/07/27 11:07:08;;;;;;;3.35;2.45;;;29.20;45.50;;;;;;6245810;22;20027;-79
2022/07/27 11:09:38;;;;;;;9.38;2.63;;;29.20;45.50;;;;;;6245842;23;20004;-74
2022/07/27 11:12:06;;;;;;;4.85;2.15;;;29.20;45.40;;;;;;6241675;22;20066;-71
2022/07/27 11:14:45;;;;;;;5.90;2.20;;;29.20;45.90;;;;;;6241751;22;20011;-77
2022/07/27 11:17:11;;;;;;;4.35;2.22;;;29.20;45.50;;;;;;6244359;22;20027;-77
2022/07/27 11:19:37;;;;;;;5.63;2.53;;;29.20;45.70;;;;;;6246003;22;20331;-78
2022/07/27 11:22:03;;;;;;;4.22;2.47;;;29.20;46.10;;;;;;6245734;22;20059;-79
2022/07/27 11:24:28;;;;;;;3.30;2.05;;;29.20;46.50;;;;;;6246004;23;20035;-77
2022/07/27 11:26:54;;;;;;;4.80;2.38;;;29.30;46.50;;;;;;6245949;22;20028;-76
2022/07/27 11:29:22;;;;;;;6.28;2.10;;;29.40;46.60;;;;;;6247763;23;20027;-73
2022/07/27 11:31:51;;;;;;;3.80;2.03;;;29.50;46.70;;;;;;6247549;22;20016;-77
2022/07/27 11:34:25;;;;;;;4.57;2.30;;;29.60;46.70;;;;;;6246958;22;20474;-77
2022/07/27 11:36:50;;;;;;;6.10;2.65;;;29.80;47.10;;;;;;6246624;22;20012;-76
2022/07/27 11:39:23;;;;;;;4.13;2.35;;;29.90;45.70;;;;;;6247153;23;20001;-77
2022/07/27 11:41:56;;;;;;;4.00;2.30;;;30.00;45.60;;;;;;6246612;22;20098;-71
2022/07/27 11:44:21;;;;;;;3.72;2.20;;;30.10;45.60;;;;;;6246761;22;20008;-74
2022/07/27 11:46:49;;;;;;;3.83;2.70;;;30.20;45.20;;;;;;6246784;23;20004;-79
2022/07/27 11:49:29;;;;;;;6.20;2.60;;;30.20;45.30;;;;;;6246400;22;20004;-69
2022/07/27 11:51:59;;;;;;;4.03;2.50;;;30.30;45.50;;;;;;6247238;22;20004;-78
2022/07/27 11:54:28;;;;;;;2.83;2.27;;;30.30;45.50;;;;;;6247004;22;20004;-78
2022/07/27 11:57:02;;;;;;;6.85;2.72;;;30.30;45.40;;;;;;6246295;22;20251;-73
2022/07/27 11:59:30;;;;;;;4.10;2.67;;;30.40;45.60;;;;;;6247011;22;20012;-79
2022/07/27 12:01:59;;;;;;;6.15;2.40;;;30.40;45.60;;;;;;6247237;22;20018;-78
2022/07/27 12:04:30;;;;;;;9.27;2.53;;;30.50;45.60;;;;;;6246656;22;20012;-77
2022/07/27 12:06:55;;;;;;;4.05;2.47;;;30.50;44.90;;;;;;6247516;22;20011;-77
2022/07/27 12:09:22;;;;;;;2.95;2.20;;;30.50;45.10;;;;;;6247278;23;20319;-79
2022/07/27 12:11:53;;;;;;;3.05;2.20;;;30.60;45.10;;;;;;6246656;22;20012;-77
2022/07/27 12:14:44;;;;;;;3.33;2.08;;;30.60;44.80;;;;;;6246981;23;20326;-80
2022/07/27 12:17:13;;;;;;;;;;;30.70;45.50;;;;;;6247139;22;20087;-79
2022/07/27 12:19:39;;;;;;;8.20;2.60;;;30.80;44.50;;;;;;6246599;23;19899;-71
2022/07/27 12:22:05;;;;;;;5.25;2.30;;;30.80;44.50;;;;;;6247062;22;20079;-71
2022/07/27 12:24:42;;;;;;;6.60;2.63;;;30.90;44.60;;;;;;6248289;22;20000;-77
2022/07/27 12:27:15;;;;;;;6.05;2.47;;;30.90;44.40;;;;;;6246291;23;20407;-75
2022/07/27 12:30:00;;;;;;;5.70;2.47;;;31.00;44.80;;;;;;6246737;22;20023;-78
2022/07/27 12:32:27;;;;;;;3.45;2.42;;;31.00;44.30;;;;;;6247886;23;20007;-79
2022/07/27 12:34:53;;;;;;;3.58;2.70;;;31.00;44.00;;;;;;6243549;23;20421;-73
2022/07/27 12:37:19;;;;;;;4.63;2.63;;;31.10;44.10;;;;;;6246696;22;20039;-76
2022/07/27 12:39:47;;;;;;;4.80;2.20;;;31.10;43.40;;;;;;6246282;22;20000;-70
2022/07/27 12:42:13;;;;;;;4.75;2.28;;;31.10;43.70;;;;;;6246255;22;20019;-73
2022/07/27 12:44:42;;;;;;;8.00;2.25;;;31.20;44.20;;;;;;6246446;22;20050;-77
2022/07/27 12:50:09;;;;;;;2.97;2.20;;;31.20;43.70;;;;;;6246307;23;20014;-75
2022/07/27 12:52:39;;;;;;;5.20;2.33;;;31.20;43.50;;;;;;6248120;22;20019;-69
2022/07/27 12:55:06;;;;;;;3.03;2.13;;;31.20;43.80;;;;;;6246832;22;20007;-77